sensor_id;sensor_type;location;lat;lon;timestamp;temperature;humidity
16781;DHT22;8507;50.056;8.248;2023-07-30T00:00:41;20.30;99.90
16781;DHT22;8507;50.056;8.248;2023-07-30T00:03:06;20.30;99.90
16781;DHT22;8507;50.056;8.248;2023-07-30T00:05:32;20.30;99.90
16781;DHT22;8507;50.056;8.248;2023-07-30T00:07:57;20.30;99.90
16781;DHT22;8507;50.056;8.248;2023-07-30T00:10:23;20.20;99.90
16781;DHT22;8507;50.056;8.248;2023-07-30T00:12:48;20.10;99.90
16781;DHT22;8507;50.056;8.248;2023-07-30T00:15:15;20.10;99.90
16781;DHT22;8507;50.056;8.248;2023-07-30T00:17:40;20.00;99.90
16781;DHT22;8507;50.056;8.248;2023-07-30T00:20:07;20.00;99.90
16781;DHT22;8507;50.056;8.248;2023-07-30T00:22:33;20.00;99.90
16781;DHT22;8507;50.056;8.248;2023-07-30T00:24:59;19.90;99.90
16781;DHT22;8507;50.056;8.248;2023-07-30T00:27:24;19.90;99.90
16781;DHT22;8507;50.056;8.248;2023-07-30T00:29:50;19.90;99.90
16781;DHT22;8507;50.056;8.248;2023-07-30T00:32:15;19.90;99.90
16781;DHT22;8507;50.056;8.248;2023-07-30T00:34:42;19.90;99.90
16781;DHT22;8507;50.056;8.248;2023-07-30T00:37:08;19.90;99.90
16781;DHT22;8507;50.056;8.248;2023-07-30T00:39:33;19.90;99.90
16781;DHT22;8507;50.056;8.248;2023-07-30T00:41:59;19.90;99.90
16781;DHT22;8507;50.056;8.248;2023-07-30T00:44:24;19.80;99.90
16781;DHT22;8507;50.056;8.248;2023-07-30T00:46:50;19.90;99.90
16781;DHT22;8507;50.056;8.248;2023-07-30T00:49:16;19.80;99.90
16781;DHT22;8507;50.056;8.248;2023-07-30T00:51:42;19.80;99.90
16781;DHT22;8507;50.056;8.248;2023-07-30T00:54:08;19.80;99.90
16781;DHT22;8507;50.056;8.248;2023-07-30T00:56:33;19.80;99.90
16781;DHT22;8507;50.056;8.248;2023-07-30T00:59:00;19.80;99.90
16781;DHT22;8507;50.056;8.248;2023-07-30T01:01:26;19.80;99.90
16781;DHT22;8507;50.056;8.248;2023-07-30T01:03:51;19.70;99.90
16781;DHT22;8507;50.056;8.248;2023-07-30T01:06:17;19.70;99.90
16781;DHT22;8507;50.056;8.248;2023-07-30T01:08:43;19.80;99.90
16781;DHT22;8507;50.056;8.248;2023-07-30T01:11:09;19.80;99.90
16781;DHT22;8507;50.056;8.248;2023-07-30T01:13:35;19.80;99.90
16781;DHT22;8507;50.056;8.248;2023-07-30T01:16:01;19.80;99.90
16781;DHT22;8507;50.056;8.248;2023-07-30T01:18:28;19.80;99.90
16781;DHT22;8507;50.056;8.248;2023-07-30T01:20:57;19.70;99.90
16781;DHT22;8507;50.056;8.248;2023-07-30T01:23:23;19.70;99.90
16781;DHT22;8507;50.056;8.248;2023-07-30T01:25:51;19.70;99.90
16781;DHT22;8507;50.056;8.248;2023-07-30T01:28:22;19.70;99.90
16781;DHT22;8507;50.056;8.248;2023-07-30T01:30:48;19.70;99.90
16781;DHT22;8507;50.056;8.248;2023-07-30T01:33:14;19.80;99.90
16781;DHT22;8507;50.056;8.248;2023-07-30T01:35:42;19.80;99.90
16781;DHT22;8507;50.056;8.248;2023-07-30T01:38:08;19.80;99.90
16781;DHT22;8507;50.056;8.248;2023-07-30T01:40:34;19.90;99.90
16781;DHT22;8507;50.056;8.248;2023-07-30T01:43:00;19.90;99.90
16781;DHT22;8507;50.056;8.248;2023-07-30T01:45:25;19.90;99.90
16781;DHT22;8507;50.056;8.248;2023-07-30T01:47:51;19.90;99.90
16781;DHT22;8507;50.056;8.248;2023-07-30T01:50:16;19.90;99.90
16781;DHT22;8507;50.056;8.248;2023-07-30T01:52:42;19.90;99.90
16781;DHT22;8507;50.056;8.248;2023-07-30T01:55:07;19.90;99.90
16781;DHT22;8507;50.056;8.248;2023-07-30T01:57:33;19.90;99.90
16781;DHT22;8507;50.056;8.248;2023-07-30T01:59:59;19.90;99.90
16781;DHT22;8507;50.056;8.248;2023-07-30T02:02:24;19.90;99.90
16781;DHT22;8507;50.056;8.248;2023-07-30T02:04:49;19.90;99.90
16781;DHT22;8507;50.056;8.248;2023-07-30T02:07:15;19.90;99.90
16781;DHT22;8507;50.056;8.248;2023-07-30T02:09:40;19.90;99.90
16781;DHT22;8507;50.056;8.248;2023-07-30T02:12:06;19.90;99.90
16781;DHT22;8507;50.056;8.248;2023-07-30T02:14:32;19.90;99.90
16781;DHT22;8507;50.056;8.248;2023-07-30T02:16:58;19.90;99.90
16781;DHT22;8507;50.056;8.248;2023-07-30T02:19:23;20.00;99.90
16781;DHT22;8507;50.056;8.248;2023-07-30T02:21:49;20.00;99.90
16781;DHT22;8507;50.056;8.248;2023-07-30T02:24:14;20.00;99.90
16781;DHT22;8507;50.056;8.248;2023-07-30T02:26:40;20.00;99.90
16781;DHT22;8507;50.056;8.248;2023-07-30T02:29:05;20.10;99.90
16781;DHT22;8507;50.056;8.248;2023-07-30T02:31:31;20.00;99.90
16781;DHT22;8507;50.056;8.248;2023-07-30T02:33:56;20.10;99.90
16781;DHT22;8507;50.056;8.248;2023-07-30T02:36:23;20.10;99.90
16781;DHT22;8507;50.056;8.248;2023-07-30T02:38:49;20.10;99.90
16781;DHT22;8507;50.056;8.248;2023-07-30T02:41:14;20.10;99.90
16781;DHT22;8507;50.056;8.248;2023-07-30T02:43:40;20.10;99.90
16781;DHT22;8507;50.056;8.248;2023-07-30T02:46:05;20.10;99.90
16781;DHT22;8507;50.056;8.248;2023-07-30T02:48:32;20.00;99.90
16781;DHT22;8507;50.056;8.248;2023-07-30T02:50:58;20.00;99.90
16781;DHT22;8507;50.056;8.248;2023-07-30T02:53:23;20.00;99.90
16781;DHT22;8507;50.056;8.248;2023-07-30T02:55:49;20.00;99.90
16781;DHT22;8507;50.056;8.248;2023-07-30T02:58:14;19.90;99.90
16781;DHT22;8507;50.056;8.248;2023-07-30T03:00:40;19.70;99.90
16781;DHT22;8507;50.056;8.248;2023-07-30T03:03:05;19.80;99.90
16781;DHT22;8507;50.056;8.248;2023-07-30T03:05:31;19.80;99.90
16781;DHT22;8507;50.056;8.248;2023-07-30T03:07:56;19.80;99.90
16781;DHT22;8507;50.056;8.248;2023-07-30T03:10:22;19.80;99.90
16781;DHT22;8507;50.056;8.248;2023-07-30T03:12:47;19.90;99.90
16781;DHT22;8507;50.056;8.248;2023-07-30T03:15:13;20.00;99.90
16781;DHT22;8507;50.056;8.248;2023-07-30T03:17:38;20.00;99.90
16781;DHT22;8507;50.056;8.248;2023-07-30T03:20:04;20.00;99.90
16781;DHT22;8507;50.056;8.248;2023-07-30T03:22:30;20.00;99.90
16781;DHT22;8507;50.056;8.248;2023-07-30T03:24:56;20.00;99.90
16781;DHT22;8507;50.056;8.248;2023-07-30T03:27:21;19.80;99.90
16781;DHT22;8507;50.056;8.248;2023-07-30T03:29:47;19.70;99.90
16781;DHT22;8507;50.056;8.248;2023-07-30T03:32:12;19.60;99.90
16781;DHT22;8507;50.056;8.248;2023-07-30T03:34:38;19.60;99.90
16781;DHT22;8507;50.056;8.248;2023-07-30T03:37:03;19.60;99.90
16781;DHT22;8507;50.056;8.248;2023-07-30T03:39:29;19.60;99.90
16781;DHT22;8507;50.056;8.248;2023-07-30T03:41:54;19.60;99.90
16781;DHT22;8507;50.056;8.248;2023-07-30T03:44:20;19.50;99.90
16781;DHT22;8507;50.056;8.248;2023-07-30T03:46:45;19.50;99.90
16781;DHT22;8507;50.056;8.248;2023-07-30T03:49:11;19.50;99.90
16781;DHT22;8507;50.056;8.248;2023-07-30T03:51:36;19.50;99.90
16781;DHT22;8507;50.056;8.248;2023-07-30T03:54:04;19.50;99.90
16781;DHT22;8507;50.056;8.248;2023-07-30T03:56:29;19.40;99.90
16781;DHT22;8507;50.056;8.248;2023-07-30T03:58:55;19.30;99.90
16781;DHT22;8507;50.056;8.248;2023-07-30T04:01:20;19.20;99.90
16781;DHT22;8507;50.056;8.248;2023-07-30T04:03:46;19.30;99.90
16781;DHT22;8507;50.056;8.248;2023-07-30T04:06:12;19.30;99.90
16781;DHT22;8507;50.056;8.248;2023-07-30T04:08:37;19.30;99.90
16781;DHT22;8507;50.056;8.248;2023-07-30T04:11:03;19.30;99.90
16781;DHT22;8507;50.056;8.248;2023-07-30T04:13:29;19.20;99.90
16781;DHT22;8507;50.056;8.248;2023-07-30T04:15:54;19.30;99.90
16781;DHT22;8507;50.056;8.248;2023-07-30T04:18:20;19.30;99.90
16781;DHT22;8507;50.056;8.248;2023-07-30T04:20:45;19.40;99.90
16781;DHT22;8507;50.056;8.248;2023-07-30T04:23:11;19.50;99.90
16781;DHT22;8507;50.056;8.248;2023-07-30T04:25:36;19.50;99.90
16781;DHT22;8507;50.056;8.248;2023-07-30T04:28:02;19.50;99.90
16781;DHT22;8507;50.056;8.248;2023-07-30T04:30:27;19.50;99.90
16781;DHT22;8507;50.056;8.248;2023-07-30T04:32:53;19.60;99.90
16781;DHT22;8507;50.056;8.248;2023-07-30T04:35:18;19.70;99.90
16781;DHT22;8507;50.056;8.248;2023-07-30T04:37:44;19.80;99.90
16781;DHT22;8507;50.056;8.248;2023-07-30T04:40:10;19.90;99.90
16781;DHT22;8507;50.056;8.248;2023-07-30T04:42:35;20.00;99.90
16781;DHT22;8507;50.056;8.248;2023-07-30T04:45:01;20.10;99.90
16781;DHT22;8507;50.056;8.248;2023-07-30T04:47:26;20.10;99.90
16781;DHT22;8507;50.056;8.248;2023-07-30T04:49:52;20.20;99.90
16781;DHT22;8507;50.056;8.248;2023-07-30T04:52:18;20.20;99.90
16781;DHT22;8507;50.056;8.248;2023-07-30T04:54:44;20.30;99.90
16781;DHT22;8507;50.056;8.248;2023-07-30T04:57:09;20.20;99.90
16781;DHT22;8507;50.056;8.248;2023-07-30T04:59:35;20.20;99.90
16781;DHT22;8507;50.056;8.248;2023-07-30T05:02:01;20.20;99.90
16781;DHT22;8507;50.056;8.248;2023-07-30T05:04:26;20.20;99.90
16781;DHT22;8507;50.056;8.248;2023-07-30T05:06:52;20.20;99.90
16781;DHT22;8507;50.056;8.248;2023-07-30T05:09:17;20.30;99.90
16781;DHT22;8507;50.056;8.248;2023-07-30T05:11:43;20.40;99.90
16781;DHT22;8507;50.056;8.248;2023-07-30T05:14:08;20.40;99.90
16781;DHT22;8507;50.056;8.248;2023-07-30T05:16:34;20.50;99.90
16781;DHT22;8507;50.056;8.248;2023-07-30T05:19:01;20.50;99.90
16781;DHT22;8507;50.056;8.248;2023-07-30T05:21:27;20.50;99.90
16781;DHT22;8507;50.056;8.248;2023-07-30T05:23:53;20.60;99.90
16781;DHT22;8507;50.056;8.248;2023-07-30T05:26:18;20.70;99.90
16781;DHT22;8507;50.056;8.248;2023-07-30T05:28:44;20.80;99.90
16781;DHT22;8507;50.056;8.248;2023-07-30T05:31:09;20.80;99.90
16781;DHT22;8507;50.056;8.248;2023-07-30T05:33:35;21.00;99.90
16781;DHT22;8507;50.056;8.248;2023-07-30T05:36:00;21.00;99.90
16781;DHT22;8507;50.056;8.248;2023-07-30T05:38:26;21.00;99.90
16781;DHT22;8507;50.056;8.248;2023-07-30T05:40:51;20.90;99.90
16781;DHT22;8507;50.056;8.248;2023-07-30T05:43:17;20.90;99.90
16781;DHT22;8507;50.056;8.248;2023-07-30T05:45:43;20.80;99.90
16781;DHT22;8507;50.056;8.248;2023-07-30T05:48:08;20.90;99.90
16781;DHT22;8507;50.056;8.248;2023-07-30T05:50:34;20.80;99.90
16781;DHT22;8507;50.056;8.248;2023-07-30T05:53:00;20.90;99.90
16781;DHT22;8507;50.056;8.248;2023-07-30T05:55:25;20.90;99.90
16781;DHT22;8507;50.056;8.248;2023-07-30T05:57:51;20.90;99.90
16781;DHT22;8507;50.056;8.248;2023-07-30T06:00:18;21.00;99.90
16781;DHT22;8507;50.056;8.248;2023-07-30T06:02:44;21.20;99.90
16781;DHT22;8507;50.056;8.248;2023-07-30T06:05:10;21.30;99.90
16781;DHT22;8507;50.056;8.248;2023-07-30T06:07:35;21.60;99.90
16781;DHT22;8507;50.056;8.248;2023-07-30T06:10:01;21.80;99.90
16781;DHT22;8507;50.056;8.248;2023-07-30T06:12:26;21.80;99.90
16781;DHT22;8507;50.056;8.248;2023-07-30T06:14:52;21.70;99.90
16781;DHT22;8507;50.056;8.248;2023-07-30T06:17:17;21.60;99.90
16781;DHT22;8507;50.056;8.248;2023-07-30T06:19:43;21.40;99.90
16781;DHT22;8507;50.056;8.248;2023-07-30T06:22:08;21.40;99.90
16781;DHT22;8507;50.056;8.248;2023-07-30T06:24:34;21.30;99.90
16781;DHT22;8507;50.056;8.248;2023-07-30T06:26:59;21.20;99.90
16781;DHT22;8507;50.056;8.248;2023-07-30T06:29:25;21.10;99.90
16781;DHT22;8507;50.056;8.248;2023-07-30T06:31:50;21.10;99.90
16781;DHT22;8507;50.056;8.248;2023-07-30T06:34:16;21.10;99.90
16781;DHT22;8507;50.056;8.248;2023-07-30T06:36:41;21.10;99.90
16781;DHT22;8507;50.056;8.248;2023-07-30T06:39:07;21.10;99.90
16781;DHT22;8507;50.056;8.248;2023-07-30T06:41:33;21.00;99.90
16781;DHT22;8507;50.056;8.248;2023-07-30T06:43:58;21.00;99.90
16781;DHT22;8507;50.056;8.248;2023-07-30T06:46:24;21.10;99.90
16781;DHT22;8507;50.056;8.248;2023-07-30T06:48:49;21.10;99.90
16781;DHT22;8507;50.056;8.248;2023-07-30T06:51:17;21.20;99.90
16781;DHT22;8507;50.056;8.248;2023-07-30T06:53:43;21.20;99.90
16781;DHT22;8507;50.056;8.248;2023-07-30T06:56:09;21.10;99.90
16781;DHT22;8507;50.056;8.248;2023-07-30T06:58:34;21.10;99.90
16781;DHT22;8507;50.056;8.248;2023-07-30T07:01:00;21.00;99.90
16781;DHT22;8507;50.056;8.248;2023-07-30T07:03:25;20.90;99.90
16781;DHT22;8507;50.056;8.248;2023-07-30T07:05:55;20.80;99.90
16781;DHT22;8507;50.056;8.248;2023-07-30T07:08:21;20.80;99.90
16781;DHT22;8507;50.056;8.248;2023-07-30T07:10:47;20.90;99.90
16781;DHT22;8507;50.056;8.248;2023-07-30T07:13:13;20.90;99.90
16781;DHT22;8507;50.056;8.248;2023-07-30T07:15:41;21.00;99.90
16781;DHT22;8507;50.056;8.248;2023-07-30T07:18:06;21.10;99.90
16781;DHT22;8507;50.056;8.248;2023-07-30T07:20:32;21.20;99.90
16781;DHT22;8507;50.056;8.248;2023-07-30T07:22:57;21.30;99.90
16781;DHT22;8507;50.056;8.248;2023-07-30T07:25:23;21.40;99.90
16781;DHT22;8507;50.056;8.248;2023-07-30T07:27:49;21.50;99.90
16781;DHT22;8507;50.056;8.248;2023-07-30T07:30:15;21.70;99.90
16781;DHT22;8507;50.056;8.248;2023-07-30T07:32:40;21.80;99.90
16781;DHT22;8507;50.056;8.248;2023-07-30T07:35:06;22.10;99.90
16781;DHT22;8507;50.056;8.248;2023-07-30T07:37:32;22.10;99.90
16781;DHT22;8507;50.056;8.248;2023-07-30T07:39:58;22.10;99.90
16781;DHT22;8507;50.056;8.248;2023-07-30T07:42:24;22.20;99.90
16781;DHT22;8507;50.056;8.248;2023-07-30T07:44:49;22.50;99.90
16781;DHT22;8507;50.056;8.248;2023-07-30T07:47:15;22.80;99.90
16781;DHT22;8507;50.056;8.248;2023-07-30T07:49:41;22.80;99.90
16781;DHT22;8507;50.056;8.248;2023-07-30T07:52:07;22.90;99.90
16781;DHT22;8507;50.056;8.248;2023-07-30T07:54:32;22.70;99.90
16781;DHT22;8507;50.056;8.248;2023-07-30T07:56:58;22.50;99.90
16781;DHT22;8507;50.056;8.248;2023-07-30T07:59:23;22.60;99.90
16781;DHT22;8507;50.056;8.248;2023-07-30T08:01:49;22.80;99.90
16781;DHT22;8507;50.056;8.248;2023-07-30T08:04:15;23.10;99.90
16781;DHT22;8507;50.056;8.248;2023-07-30T08:06:40;23.60;99.90
16781;DHT22;8507;50.056;8.248;2023-07-30T08:09:06;23.70;99.90
16781;DHT22;8507;50.056;8.248;2023-07-30T08:11:31;23.80;99.90
16781;DHT22;8507;50.056;8.248;2023-07-30T08:13:57;23.80;99.90
16781;DHT22;8507;50.056;8.248;2023-07-30T08:16:22;23.20;99.90
16781;DHT22;8507;50.056;8.248;2023-07-30T08:18:48;23.20;99.90
16781;DHT22;8507;50.056;8.248;2023-07-30T08:21:14;23.20;99.90
16781;DHT22;8507;50.056;8.248;2023-07-30T08:23:42;23.10;99.90
16781;DHT22;8507;50.056;8.248;2023-07-30T08:26:08;23.10;99.90
16781;DHT22;8507;50.056;8.248;2023-07-30T08:28:33;23.10;99.90
16781;DHT22;8507;50.056;8.248;2023-07-30T08:31:02;23.10;99.90
16781;DHT22;8507;50.056;8.248;2023-07-30T08:33:28;23.10;99.90
16781;DHT22;8507;50.056;8.248;2023-07-30T08:35:58;23.00;99.90
16781;DHT22;8507;50.056;8.248;2023-07-30T08:38:24;22.80;99.90
16781;DHT22;8507;50.056;8.248;2023-07-30T08:40:50;22.80;99.90
16781;DHT22;8507;50.056;8.248;2023-07-30T08:43:16;22.80;99.90
16781;DHT22;8507;50.056;8.248;2023-07-30T08:45:42;22.80;99.90
16781;DHT22;8507;50.056;8.248;2023-07-30T08:48:08;22.70;99.90
16781;DHT22;8507;50.056;8.248;2023-07-30T08:50:34;22.60;99.90
16781;DHT22;8507;50.056;8.248;2023-07-30T08:53:01;22.50;99.90
16781;DHT22;8507;50.056;8.248;2023-07-30T08:55:28;22.40;99.90
16781;DHT22;8507;50.056;8.248;2023-07-30T08:57:56;22.30;99.90
16781;DHT22;8507;50.056;8.248;2023-07-30T09:00:25;22.30;99.90
16781;DHT22;8507;50.056;8.248;2023-07-30T09:02:58;22.20;99.90
16781;DHT22;8507;50.056;8.248;2023-07-30T09:05:25;22.00;99.90
16781;DHT22;8507;50.056;8.248;2023-07-30T09:07:50;21.70;99.90
16781;DHT22;8507;50.056;8.248;2023-07-30T09:10:16;21.40;99.90
16781;DHT22;8507;50.056;8.248;2023-07-30T09:12:42;21.00;99.90
16781;DHT22;8507;50.056;8.248;2023-07-30T09:15:07;20.50;99.90
16781;DHT22;8507;50.056;8.248;2023-07-30T09:17:34;20.10;99.90
16781;DHT22;8507;50.056;8.248;2023-07-30T09:20:01;19.60;99.90
16781;DHT22;8507;50.056;8.248;2023-07-30T09:22:31;19.30;99.90
16781;DHT22;8507;50.056;8.248;2023-07-30T09:25:06;19.40;99.90
16781;DHT22;8507;50.056;8.248;2023-07-30T09:27:33;19.60;99.90
16781;DHT22;8507;50.056;8.248;2023-07-30T09:30:00;19.70;99.90
16781;DHT22;8507;50.056;8.248;2023-07-30T09:32:31;19.70;99.90
16781;DHT22;8507;50.056;8.248;2023-07-30T09:35:10;19.90;99.90
16781;DHT22;8507;50.056;8.248;2023-07-30T09:37:40;20.00;99.90
16781;DHT22;8507;50.056;8.248;2023-07-30T09:40:07;20.20;99.90
16781;DHT22;8507;50.056;8.248;2023-07-30T09:42:34;20.40;99.90
16781;DHT22;8507;50.056;8.248;2023-07-30T09:45:01;20.60;99.90
16781;DHT22;8507;50.056;8.248;2023-07-30T09:47:27;20.50;99.90
16781;DHT22;8507;50.056;8.248;2023-07-30T09:49:53;20.70;99.90
16781;DHT22;8507;50.056;8.248;2023-07-30T09:52:20;20.90;99.90
16781;DHT22;8507;50.056;8.248;2023-07-30T09:54:48;20.70;99.90
16781;DHT22;8507;50.056;8.248;2023-07-30T09:57:15;20.80;99.90
16781;DHT22;8507;50.056;8.248;2023-07-30T09:59:41;20.50;99.90
16781;DHT22;8507;50.056;8.248;2023-07-30T10:02:07;20.40;99.90
16781;DHT22;8507;50.056;8.248;2023-07-30T10:04:34;20.50;99.90
16781;DHT22;8507;50.056;8.248;2023-07-30T10:07:06;20.60;99.90
16781;DHT22;8507;50.056;8.248;2023-07-30T10:09:39;20.90;99.90
16781;DHT22;8507;50.056;8.248;2023-07-30T10:12:13;20.90;99.90
16781;DHT22;8507;50.056;8.248;2023-07-30T10:14:41;20.60;99.90
16781;DHT22;8507;50.056;8.248;2023-07-30T10:17:09;20.60;99.90
16781;DHT22;8507;50.056;8.248;2023-07-30T10:19:35;20.80;99.90
16781;DHT22;8507;50.056;8.248;2023-07-30T10:24:39;21.00;99.90
16781;DHT22;8507;50.056;8.248;2023-07-30T10:27:08;21.00;99.90
16781;DHT22;8507;50.056;8.248;2023-07-30T10:29:35;21.10;99.90
16781;DHT22;8507;50.056;8.248;2023-07-30T10:32:01;21.10;99.90
16781;DHT22;8507;50.056;8.248;2023-07-30T10:34:46;21.20;99.90
16781;DHT22;8507;50.056;8.248;2023-07-30T10:37:18;21.30;99.90
16781;DHT22;8507;50.056;8.248;2023-07-30T10:39:48;21.50;99.90
16781;DHT22;8507;50.056;8.248;2023-07-30T10:42:13;21.50;99.90
16781;DHT22;8507;50.056;8.248;2023-07-30T10:44:43;21.40;99.90
16781;DHT22;8507;50.056;8.248;2023-07-30T10:47:09;21.40;99.90
16781;DHT22;8507;50.056;8.248;2023-07-30T10:49:39;21.90;99.90
16781;DHT22;8507;50.056;8.248;2023-07-30T10:52:06;22.10;99.90
16781;DHT22;8507;50.056;8.248;2023-07-30T10:54:35;22.20;99.90
16781;DHT22;8507;50.056;8.248;2023-07-30T10:57:02;22.50;99.90
16781;DHT22;8507;50.056;8.248;2023-07-30T10:59:38;22.30;99.90
16781;DHT22;8507;50.056;8.248;2023-07-30T11:02:04;22.10;99.90
16781;DHT22;8507;50.056;8.248;2023-07-30T11:04:34;21.90;99.90
16781;DHT22;8507;50.056;8.248;2023-07-30T11:07:00;21.80;99.90
16781;DHT22;8507;50.056;8.248;2023-07-30T11:09:27;21.60;99.90
16781;DHT22;8507;50.056;8.248;2023-07-30T11:11:54;21.50;99.90
16781;DHT22;8507;50.056;8.248;2023-07-30T11:14:22;21.30;99.90
16781;DHT22;8507;50.056;8.248;2023-07-30T11:16:49;21.20;99.90
16781;DHT22;8507;50.056;8.248;2023-07-30T11:19:16;21.20;99.90
16781;DHT22;8507;50.056;8.248;2023-07-30T11:21:53;21.30;99.90
16781;DHT22;8507;50.056;8.248;2023-07-30T11:24:19;21.40;99.90
16781;DHT22;8507;50.056;8.248;2023-07-30T11:26:57;21.60;99.90
16781;DHT22;8507;50.056;8.248;2023-07-30T11:29:23;21.80;99.90
16781;DHT22;8507;50.056;8.248;2023-07-30T11:31:49;22.20;99.90
16781;DHT22;8507;50.056;8.248;2023-07-30T11:34:14;22.50;99.90
16781;DHT22;8507;50.056;8.248;2023-07-30T11:36:41;22.80;99.90
16781;DHT22;8507;50.056;8.248;2023-07-30T11:39:07;22.90;99.90
16781;DHT22;8507;50.056;8.248;2023-07-30T11:41:33;23.10;99.90
16781;DHT22;8507;50.056;8.248;2023-07-30T11:43:59;23.10;99.90
16781;DHT22;8507;50.056;8.248;2023-07-30T11:46:25;23.10;99.90
16781;DHT22;8507;50.056;8.248;2023-07-30T11:48:53;22.90;99.90
16781;DHT22;8507;50.056;8.248;2023-07-30T11:51:29;22.60;99.90
16781;DHT22;8507;50.056;8.248;2023-07-30T11:53:59;22.60;99.90
16781;DHT22;8507;50.056;8.248;2023-07-30T11:58:57;22.50;99.90
16781;DHT22;8507;50.056;8.248;2023-07-30T12:01:26;22.50;99.90
16781;DHT22;8507;50.056;8.248;2023-07-30T12:03:56;22.50;99.90
16781;DHT22;8507;50.056;8.248;2023-07-30T12:06:22;22.80;99.90
16781;DHT22;8507;50.056;8.248;2023-07-30T12:08:49;22.80;99.90
16781;DHT22;8507;50.056;8.248;2023-07-30T12:11:17;22.80;99.90
16781;DHT22;8507;50.056;8.248;2023-07-30T12:13:44;22.70;99.90
16781;DHT22;8507;50.056;8.248;2023-07-30T12:16:13;22.80;99.90
16781;DHT22;8507;50.056;8.248;2023-07-30T12:18:39;22.50;99.90
16781;DHT22;8507;50.056;8.248;2023-07-30T12:21:06;22.50;99.90
16781;DHT22;8507;50.056;8.248;2023-07-30T12:23:37;22.20;99.90
16781;DHT22;8507;50.056;8.248;2023-07-30T12:26:03;21.80;99.90
16781;DHT22;8507;50.056;8.248;2023-07-30T12:28:33;21.90;99.90
16781;DHT22;8507;50.056;8.248;2023-07-30T12:31:00;22.30;99.90
16781;DHT22;8507;50.056;8.248;2023-07-30T12:33:25;22.50;99.90
16781;DHT22;8507;50.056;8.248;2023-07-30T12:35:51;22.80;99.90
16781;DHT22;8507;50.056;8.248;2023-07-30T12:38:16;23.10;99.90
16781;DHT22;8507;50.056;8.248;2023-07-30T12:40:42;23.10;99.90
16781;DHT22;8507;50.056;8.248;2023-07-30T12:43:07;23.10;99.90
16781;DHT22;8507;50.056;8.248;2023-07-30T12:45:34;23.00;99.90
16781;DHT22;8507;50.056;8.248;2023-07-30T12:48:01;23.20;99.90
16781;DHT22;8507;50.056;8.248;2023-07-30T12:50:26;23.40;99.90
16781;DHT22;8507;50.056;8.248;2023-07-30T12:52:52;23.30;99.90
16781;DHT22;8507;50.056;8.248;2023-07-30T12:55:18;23.10;99.90
16781;DHT22;8507;50.056;8.248;2023-07-30T12:57:43;22.90;99.90
16781;DHT22;8507;50.056;8.248;2023-07-30T13:00:09;22.80;99.90
16781;DHT22;8507;50.056;8.248;2023-07-30T13:02:35;22.80;99.90
16781;DHT22;8507;50.056;8.248;2023-07-30T13:05:01;22.70;99.90
16781;DHT22;8507;50.056;8.248;2023-07-30T13:07:26;22.90;99.90
16781;DHT22;8507;50.056;8.248;2023-07-30T13:10:03;23.10;99.90
16781;DHT22;8507;50.056;8.248;2023-07-30T13:12:29;23.30;99.90
16781;DHT22;8507;50.056;8.248;2023-07-30T13:14:54;23.30;99.90
16781;DHT22;8507;50.056;8.248;2023-07-30T13:17:20;23.30;99.90
16781;DHT22;8507;50.056;8.248;2023-07-30T13:19:45;23.40;99.90
16781;DHT22;8507;50.056;8.248;2023-07-30T13:22:11;23.30;99.90
16781;DHT22;8507;50.056;8.248;2023-07-30T13:24:36;23.20;99.90
16781;DHT22;8507;50.056;8.248;2023-07-30T13:27:02;23.20;99.90
16781;DHT22;8507;50.056;8.248;2023-07-30T13:29:27;23.40;99.90
16781;DHT22;8507;50.056;8.248;2023-07-30T13:31:53;23.30;99.90
16781;DHT22;8507;50.056;8.248;2023-07-30T13:34:18;23.40;99.90
16781;DHT22;8507;50.056;8.248;2023-07-30T13:36:44;23.50;99.90
16781;DHT22;8507;50.056;8.248;2023-07-30T13:39:09;23.40;99.90
16781;DHT22;8507;50.056;8.248;2023-07-30T13:41:35;23.40;99.90
16781;DHT22;8507;50.056;8.248;2023-07-30T13:44:00;23.60;99.90
16781;DHT22;8507;50.056;8.248;2023-07-30T13:46:26;23.60;99.90
16781;DHT22;8507;50.056;8.248;2023-07-30T13:48:51;23.80;99.90
16781;DHT22;8507;50.056;8.248;2023-07-30T13:51:17;23.70;99.90
16781;DHT22;8507;50.056;8.248;2023-07-30T13:53:42;23.60;99.90
16781;DHT22;8507;50.056;8.248;2023-07-30T13:56:08;23.60;99.90
16781;DHT22;8507;50.056;8.248;2023-07-30T13:58:34;23.50;99.90
16781;DHT22;8507;50.056;8.248;2023-07-30T14:00:59;23.60;99.90
16781;DHT22;8507;50.056;8.248;2023-07-30T14:03:24;23.90;99.90
16781;DHT22;8507;50.056;8.248;2023-07-30T14:05:50;23.80;99.90
16781;DHT22;8507;50.056;8.248;2023-07-30T14:08:15;23.90;99.90
16781;DHT22;8507;50.056;8.248;2023-07-30T14:10:41;23.80;99.90
16781;DHT22;8507;50.056;8.248;2023-07-30T14:13:07;23.70;99.90
16781;DHT22;8507;50.056;8.248;2023-07-30T14:15:32;23.70;99.90
16781;DHT22;8507;50.056;8.248;2023-07-30T14:17:58;23.60;99.90
16781;DHT22;8507;50.056;8.248;2023-07-30T14:20:23;23.50;99.90
16781;DHT22;8507;50.056;8.248;2023-07-30T14:22:49;23.50;99.90
16781;DHT22;8507;50.056;8.248;2023-07-30T14:25:15;23.30;99.90
16781;DHT22;8507;50.056;8.248;2023-07-30T14:27:40;23.00;99.90
16781;DHT22;8507;50.056;8.248;2023-07-30T14:30:06;23.00;99.90
16781;DHT22;8507;50.056;8.248;2023-07-30T14:32:32;23.00;99.90
16781;DHT22;8507;50.056;8.248;2023-07-30T14:34:57;23.20;99.90
16781;DHT22;8507;50.056;8.248;2023-07-30T14:37:23;23.10;99.90
16781;DHT22;8507;50.056;8.248;2023-07-30T14:39:49;23.10;99.90
16781;DHT22;8507;50.056;8.248;2023-07-30T14:42:14;23.30;99.90
16781;DHT22;8507;50.056;8.248;2023-07-30T14:44:40;23.30;99.90
16781;DHT22;8507;50.056;8.248;2023-07-30T14:47:05;23.10;99.90
16781;DHT22;8507;50.056;8.248;2023-07-30T14:49:33;23.10;99.90
16781;DHT22;8507;50.056;8.248;2023-07-30T14:51:58;23.10;99.90
16781;DHT22;8507;50.056;8.248;2023-07-30T14:54:24;23.20;99.90
16781;DHT22;8507;50.056;8.248;2023-07-30T14:56:49;23.40;99.90
16781;DHT22;8507;50.056;8.248;2023-07-30T14:59:15;23.50;99.90
16781;DHT22;8507;50.056;8.248;2023-07-30T15:01:40;23.50;99.90
16781;DHT22;8507;50.056;8.248;2023-07-30T15:04:06;23.30;99.90
16781;DHT22;8507;50.056;8.248;2023-07-30T15:06:32;23.10;99.90
16781;DHT22;8507;50.056;8.248;2023-07-30T15:08:58;23.00;99.90
16781;DHT22;8507;50.056;8.248;2023-07-30T15:11:24;22.80;99.90
16781;DHT22;8507;50.056;8.248;2023-07-30T15:13:49;22.70;99.90
16781;DHT22;8507;50.056;8.248;2023-07-30T15:16:15;22.80;99.90
16781;DHT22;8507;50.056;8.248;2023-07-30T15:18:44;22.90;99.90
16781;DHT22;8507;50.056;8.248;2023-07-30T15:21:13;23.10;99.90
16781;DHT22;8507;50.056;8.248;2023-07-30T15:23:38;23.00;99.90
16781;DHT22;8507;50.056;8.248;2023-07-30T15:26:04;22.90;99.90
16781;DHT22;8507;50.056;8.248;2023-07-30T15:28:29;22.80;99.90
16781;DHT22;8507;50.056;8.248;2023-07-30T15:30:55;22.70;99.90
16781;DHT22;8507;50.056;8.248;2023-07-30T15:33:22;22.80;99.90
16781;DHT22;8507;50.056;8.248;2023-07-30T15:35:48;23.10;99.90
16781;DHT22;8507;50.056;8.248;2023-07-30T15:38:13;23.30;99.90
16781;DHT22;8507;50.056;8.248;2023-07-30T15:40:39;23.30;99.90
16781;DHT22;8507;50.056;8.248;2023-07-30T15:43:06;23.20;99.90